Time;durP1;ratioP1;P1;durP2;ratioP2;P2;SDS_P1;SDS_P2;PMS_P1;PMS_P2;Temp;Humidity;BMP_temperature;BMP_pressure;BME280_temperature;BME280_humidity;BME280_pressure;Samples;Min_cycle;Max_cycle;Signal;HPM_P1;HPM_P2
2020/12/21 00:02:07;;;;;;;8.55;1.42;;;12.10;99.90;;;;;;5062183;28;20056;-91
2020/12/21 00:04:50;;;;;;;8.18;2.53;;;12.10;99.90;;;;;;5059667;28;20767;-91
2020/12/21 00:07:36;;;;;;;8.13;4.07;;;12.10;99.90;;;;;;5074852;28;20082;-91
2020/12/21 00:10:15;;;;;;;6.78;1.70;;;12.10;99.90;;;;;;5057613;28;20387;-91
2020/12/21 00:12:57;;;;;;;6.05;1.20;;;12.10;99.90;;;;;;5073131;28;20094;-91
2020/12/21 00:15:38;;;;;;;8.68;1.35;;;12.10;99.90;;;;;;5074084;28;20072;-91
2020/12/21 00:18:27;;;;;;;5.70;2.47;;;12.00;99.90;;;;;;5065372;28;20063;-91
2020/12/21 00:21:05;;;;;;;10.73;2.10;;;12.00;99.90;;;;;;5059298;28;20131;-91
2020/12/21 00:24:00;;;;;;;9.90;1.80;;;12.10;99.90;;;;;;5069252;28;20052;-91
2020/12/21 00:26:44;;;;;;;11.20;1.67;;;12.00;99.90;;;;;;5056293;28;21139;-91
2020/12/21 00:29:35;;;;;;;11.70;1.73;;;12.00;99.90;;;;;;5062426;28;20050;-91
2020/12/21 00:32:20;;;;;;;9.35;1.40;;;12.00;99.90;;;;;;5060301;28;20119;-91
2020/12/21 00:35:02;;;;;;;10.35;1.50;;;12.00;99.90;;;;;;5069383;28;20064;-91
2020/12/21 00:37:49;;;;;;;8.02;1.92;;;12.00;99.90;;;;;;5069421;28;20049;-91
2020/12/21 00:40:33;;;;;;;10.00;1.50;;;12.00;99.90;;;;;;5059353;28;20075;-92
2020/12/21 00:43:14;;;;;;;13.02;1.83;;;11.90;99.90;;;;;;5058957;28;20067;-91
2020/12/21 00:45:57;;;;;;;10.38;2.05;;;12.00;99.90;;;;;;5056609;28;20078;-91
2020/12/21 00:48:44;;;;;;;13.50;2.00;;;12.00;99.90;;;;;;5054763;28;20045;-91
2020/12/21 00:51:29;;;;;;;7.20;1.48;;;12.00;99.90;;;;;;5057085;28;20474;-91
2020/12/21 00:54:15;;;;;;;13.07;1.92;;;11.90;99.90;;;;;;5057967;28;20045;-91
2020/12/21 00:57:04;;;;;;;6.78;1.40;;;12.00;99.90;;;;;;5060623;28;20041;-90
2020/12/21 00:59:52;;;;;;;10.00;1.60;;;12.00;99.90;;;;;;5068529;28;20056;-91
2020/12/21 01:02:40;;;;;;;7.15;1.63;;;12.00;99.90;;;;;;5058590;28;20483;-92
2020/12/21 01:05:26;;;;;;;12.50;1.52;;;12.00;99.90;;;;;;5062262;28;20044;-92
2020/12/21 01:08:11;;;;;;;9.82;1.63;;;12.00;99.90;;;;;;5065437;28;20045;-91
2020/12/21 01:10:53;;;;;;;9.55;1.42;;;12.00;99.90;;;;;;5060166;28;20451;-90
2020/12/21 01:13:32;;;;;;;8.30;1.60;;;12.00;99.90;;;;;;5069428;28;20075;-91
2020/12/21 01:16:17;;;;;;;11.43;2.00;;;12.00;99.90;;;;;;5056773;28;20071;-91
2020/12/21 01:19:00;;;;;;;14.52;2.53;;;12.00;99.90;;;;;;5056681;28;20053;-91
2020/12/21 01:21:39;;;;;;;10.30;1.67;;;12.00;99.90;;;;;;5068931;28;20433;-91
2020/12/21 01:24:17;;;;;;;15.95;1.80;;;12.00;99.90;;;;;;5069603;28;20079;-90
2020/12/21 01:27:05;;;;;;;10.32;1.80;;;12.00;99.90;;;;;;5062500;28;20493;-92
2020/12/21 01:29:45;;;;;;;10.65;2.15;;;12.00;99.90;;;;;;5058189;28;20041;-91
2020/12/21 01:32:31;;;;;;;12.68;1.80;;;12.00;99.90;;;;;;5065647;28;20057;-92
2020/12/21 01:35:18;;;;;;;10.05;1.42;;;12.00;99.90;;;;;;5068577;28;20458;-92
2020/12/21 01:38:00;;;;;;;10.50;1.73;;;12.10;99.90;;;;;;5065837;28;20502;-91
2020/12/21 01:40:38;;;;;;;15.90;1.80;;;12.10;99.90;;;;;;5066075;28;20041;-92
2020/12/21 01:43:16;;;;;;;12.40;1.60;;;12.10;99.90;;;;;;5058166;28;20055;-91
2020/12/21 01:45:58;;;;;;;11.85;1.70;;;12.10;99.90;;;;;;5070937;28;20070;-91
2020/12/21 01:48:38;;;;;;;10.52;1.67;;;12.10;99.90;;;;;;5071752;28;20424;-91
2020/12/21 01:51:29;;;;;;;13.32;1.85;;;12.10;99.90;;;;;;5057463;28;20048;-91
2020/12/21 01:54:14;;;;;;;15.43;2.22;;;12.10;99.90;;;;;;5064186;28;20095;-92
2020/12/21 01:56:55;;;;;;;11.80;1.70;;;12.10;99.90;;;;;;5066962;28;20044;-91
2020/12/21 01:59:39;;;;;;;14.73;2.42;;;12.10;99.90;;;;;;5069683;28;20055;-91
2020/12/21 02:02:23;;;;;;;9.32;1.65;;;12.20;99.90;;;;;;5065204;28;20056;-92
2020/12/21 02:05:08;;;;;;;8.13;1.48;;;12.20;99.90;;;;;;5067439;28;20474;-91
2020/12/21 02:07:51;;;;;;;16.60;2.08;;;12.20;99.90;;;;;;5067473;28;20052;-91
2020/12/21 02:10:35;;;;;;;11.27;1.95;;;12.20;99.90;;;;;;5057691;28;20099;-91
2020/12/21 02:13:17;;;;;;;13.20;1.73;;;12.20;99.90;;;;;;5038513;28;20080;-91
2020/12/21 02:16:08;;;;;;;14.65;2.00;;;12.30;99.90;;;;;;5055217;28;20045;-92
2020/12/21 02:18:50;;;;;;;11.43;1.85;;;12.30;99.90;;;;;;5071078;28;20064;-91
2020/12/21 02:21:29;;;;;;;11.35;1.88;;;12.30;99.90;;;;;;5069820;28;20052;-91
2020/12/21 02:24:18;;;;;;;15.50;2.40;;;12.30;99.90;;;;;;5057749;28;20056;-91
2020/12/21 02:27:07;;;;;;;19.52;2.47;;;12.30;99.90;;;;;;5054938;28;20055;-91
2020/12/21 02:29:48;;;;;;;18.92;2.47;;;12.30;99.90;;;;;;5057653;28;20045;-91
2020/12/21 02:32:37;;;;;;;17.75;2.30;;;12.40;99.90;;;;;;5061186;28;20104;-91
2020/12/21 02:35:20;;;;;;;15.25;2.40;;;12.40;99.90;;;;;;5067984;28;20135;-91
2020/12/21 02:38:01;;;;;;;20.77;2.70;;;12.40;99.90;;;;;;5070276;28;20053;-90
2020/12/21 02:40:44;;;;;;;19.45;2.20;;;12.40;99.90;;;;;;5069659;28;20490;-90
2020/12/21 02:43:31;;;;;;;10.40;1.88;;;12.40;99.90;;;;;;5061265;28;20454;-92
2020/12/21 02:46:16;;;;;;;11.68;1.83;;;12.50;99.90;;;;;;5059976;28;20432;-90
2020/12/21 02:49:00;;;;;;;17.45;2.75;;;12.50;99.90;;;;;;5074488;28;20053;-91
2020/12/21 02:51:44;;;;;;;15.40;2.28;;;12.50;99.90;;;;;;5058243;28;20053;-91
2020/12/21 02:54:28;;;;;;;13.82;2.00;;;12.60;99.90;;;;;;5067009;28;20043;-91
2020/12/21 02:57:12;;;;;;;17.38;2.75;;;12.60;99.90;;;;;;5061308;28;20052;-91
2020/12/21 03:00:03;;;;;;;20.55;2.85;;;12.60;99.90;;;;;;5071720;28;20056;-91
2020/12/21 03:02:44;;;;;;;19.40;2.58;;;12.60;99.90;;;;;;5069090;28;20114;-91
2020/12/21 03:05:29;;;;;;;26.30;2.80;;;12.60;99.90;;;;;;5069309;28;20615;-91
2020/12/21 03:08:11;;;;;;;19.83;2.90;;;12.60;99.90;;;;;;5071254;28;20055;-91
2020/12/21 03:10:55;;;;;;;16.98;2.35;;;12.70;99.90;;;;;;5071601;28;20072;-92
2020/12/21 03:13:41;;;;;;;13.50;2.67;;;12.70;99.90;;;;;;5073218;28;20119;-92
2020/12/21 03:16:23;;;;;;;16.27;2.65;;;12.70;99.90;;;;;;5060331;28;20528;-92
2020/12/21 03:19:04;;;;;;;21.15;2.55;;;12.70;99.90;;;;;;5072625;28;20431;-92
2020/12/21 03:21:42;;;;;;;30.95;2.92;;;12.80;99.90;;;;;;5074799;28;20052;-92
2020/12/21 03:24:28;;;;;;;19.13;3.08;;;12.80;99.90;;;;;;5073467;28;20112;-92
2020/12/21 03:27:10;;;;;;;24.27;3.08;;;12.80;99.90;;;;;;5062236;28;20052;-92
2020/12/21 03:29:56;;;;;;;24.85;3.00;;;12.80;99.90;;;;;;5059748;28;20041;-92
2020/12/21 03:32:39;;;;;;;26.95;3.30;;;12.90;99.90;;;;;;5066004;28;20097;-91
2020/12/21 03:35:36;;;;;;;19.83;2.47;;;12.90;99.90;;;;;;5073644;28;20052;-92
2020/12/21 03:38:21;;;;;;;28.52;3.28;;;12.90;99.90;;;;;;5067412;28;20057;-91
2020/12/21 03:41:06;;;;;;;;;;;13.00;99.90;;;;;;5059775;28;20071;-92
2020/12/21 03:43:49;;;;;;;23.17;2.72;;;13.00;99.90;;;;;;5061494;28;19924;-92
2020/12/21 03:46:41;;;;;;;21.38;3.17;;;13.00;99.90;;;;;;5059557;28;20052;-92
2020/12/21 03:49:28;;;;;;;14.07;2.10;;;13.10;99.90;;;;;;5060514;28;20051;-91
2020/12/21 03:52:16;;;;;;;10.98;2.00;;;13.10;99.90;;;;;;5059935;28;20390;-91
2020/12/21 03:55:00;;;;;;;8.73;1.25;;;13.10;99.90;;;;;;5075252;28;20059;-92
2020/12/21 03:57:52;;;;;;;5.75;1.20;;;13.10;99.90;;;;;;5085343;28;20060;-92
2020/12/21 04:00:36;;;;;;;9.40;1.58;;;13.10;99.90;;;;;;5072430;28;20052;-91
2020/12/21 04:03:22;;;;;;;30.80;2.30;;;13.20;99.90;;;;;;5072882;28;20071;-92
2020/12/21 04:06:06;;;;;;;36.63;3.05;;;13.20;99.90;;;;;;5057562;28;20053;-92
2020/12/21 04:08:57;;;;;;;47.22;3.25;;;13.20;99.90;;;;;;5068388;28;20467;-92
2020/12/21 04:11:42;;;;;;;50.70;4.43;;;13.20;99.90;;;;;;5074316;28;20063;-91
2020/12/21 04:14:28;;;;;;;77.25;4.50;;;13.20;99.90;;;;;;5053584;28;20049;-91
2020/12/21 04:17:02;;;;;;;59.67;3.75;;;13.20;99.90;;;;;;5059587;28;20342;-91
2020/12/21 04:19:46;;;;;;;17.77;2.80;;;13.20;99.90;;;;;;5060646;28;20049;-92
2020/12/21 04:22:31;;;;;;;11.45;2.10;;;13.30;99.90;;;;;;5072282;28;20054;-92
2020/12/21 04:25:17;;;;;;;16.70;2.40;;;13.30;99.90;;;;;;5060089;28;20100;-92
2020/12/21 04:27:56;;;;;;;36.33;2.80;;;13.30;99.90;;;;;;5071389;28;20734;-91
2020/12/21 04:30:39;;;;;;;45.65;3.50;;;13.30;99.90;;;;;;5073671;28;20053;-91
2020/12/21 04:33:22;;;;;;;101.75;4.47;;;13.30;99.90;;;;;;5061874;28;20493;-92
2020/12/21 04:36:22;;;;;;;92.20;5.00;;;13.30;99.90;;;;;;5071479;28;20550;-91
2020/12/21 04:39:01;;;;;;;64.13;4.15;;;13.30;99.90;;;;;;5057391;28;20120;-92
2020/12/21 04:41:45;;;;;;;37.58;4.50;;;13.30;99.90;;;;;;5058923;28;20052;-91
2020/12/21 04:44:27;;;;;;;16.10;3.28;;;13.30;99.90;;;;;;5064679;28;20048;-92
2020/12/21 04:47:12;;;;;;;31.35;4.05;;;13.30;99.90;;;;;;5067900;28;20052;-91
2020/12/21 04:49:57;;;;;;;67.75;4.55;;;13.30;99.90;;;;;;5065669;28;20076;-91
2020/12/21 04:52:39;;;;;;;62.90;5.70;;;13.30;99.90;;;;;;5058097;28;20060;-91
2020/12/21 04:55:22;;;;;;;95.65;5.70;;;13.30;99.90;;;;;;5063995;28;20048;-92
2020/12/21 04:58:01;;;;;;;137.38;7.03;;;13.30;99.90;;;;;;5072784;28;20052;-91
2020/12/21 05:00:50;;;;;;;99.22;6.35;;;13.30;99.90;;;;;;5059146;28;20066;-91
2020/12/21 05:03:35;;;;;;;110.47;6.43;;;13.30;99.90;;;;;;5072673;28;20052;-91
2020/12/21 05:06:29;;;;;;;72.90;5.75;;;13.30;99.90;;;;;;5060597;28;20099;-91
2020/12/21 05:09:18;;;;;;;112.20;6.10;;;13.20;99.90;;;;;;5060461;28;20049;-92
2020/12/21 05:12:07;;;;;;;127.35;6.50;;;13.30;99.90;;;;;;5067655;28;20045;-92
2020/12/21 05:14:40;;;;;;;115.57;6.50;;;13.30;99.90;;;;;;5067833;28;20053;-92
2020/12/21 05:17:22;;;;;;;97.78;5.15;;;13.30;99.90;;;;;;5066228;28;20048;-91
2020/12/21 05:20:04;;;;;;;60.00;4.40;;;13.30;99.90;;;;;;5066666;28;20048;-91
2020/12/21 05:22:51;;;;;;;55.53;4.60;;;13.30;99.90;;;;;;5071047;28;20119;-91
2020/12/21 05:25:32;;;;;;;74.30;5.25;;;13.20;99.90;;;;;;5067474;28;20071;-91
2020/12/21 05:28:19;;;;;;;141.65;5.80;;;13.20;99.90;;;;;;5071129;28;20052;-91
2020/12/21 05:31:00;;;;;;;265.98;8.05;;;13.20;99.90;;;;;;5071907;28;20045;-91
2020/12/21 05:33:46;;;;;;;244.38;8.63;;;13.30;99.90;;;;;;5057112;28;20049;-92
2020/12/21 05:36:49;;;;;;;311.77;9.35;;;13.30;99.90;;;;;;5054243;28;20084;-91
2020/12/21 05:39:32;;;;;;;244.43;8.02;;;13.20;99.90;;;;;;5071692;28;20048;-91
2020/12/21 05:42:16;;;;;;;120.78;5.90;;;13.20;99.90;;;;;;5060658;28;20082;-91
2020/12/21 05:45:02;;;;;;;91.35;5.10;;;13.20;99.90;;;;;;5069966;28;20048;-91
2020/12/21 05:47:42;;;;;;;43.72;4.05;;;13.20;99.90;;;;;;5067296;28;20052;-91
2020/12/21 05:50:27;;;;;;;14.73;2.75;;;13.20;99.90;;;;;;5071329;28;20044;-91
2020/12/21 05:53:07;;;;;;;21.52;3.05;;;13.20;99.90;;;;;;5065720;28;20113;-91
2020/12/21 05:55:46;;;;;;;18.35;2.63;;;13.20;99.90;;;;;;5070408;28;20051;-91
2020/12/21 05:58:31;;;;;;;22.27;2.85;;;13.20;99.90;;;;;;5043927;28;20471;-91
2020/12/21 06:01:18;;;;;;;30.65;3.45;;;13.30;99.90;;;;;;5059681;28;20048;-92
2020/12/21 06:04:05;;;;;;;20.02;3.08;;;13.20;99.90;;;;;;5071228;28;20063;-91
2020/12/21 06:07:09;;;;;;;32.30;3.58;;;13.30;99.90;;;;;;5055804;28;20052;-91
2020/12/21 06:09:53;;;;;;;38.55;3.80;;;13.30;99.90;;;;;;5068841;28;20072;-91
2020/12/21 06:12:31;;;;;;;56.25;4.95;;;13.20;99.90;;;;;;5059893;28;20053;-90
2020/12/21 06:15:13;;;;;;;86.70;6.20;;;13.20;99.90;;;;;;5072137;28;20044;-91
2020/12/21 06:17:49;;;;;;;75.13;6.20;;;13.20;99.90;;;;;;5066179;28;20406;-89
2020/12/21 06:20:23;;;;;;;113.78;7.03;;;13.30;99.90;;;;;;5062270;28;20044;-91
2020/12/21 06:23:13;;;;;;;52.47;5.90;;;13.30;99.90;;;;;;5063327;28;20482;-90
2020/12/21 06:25:51;;;;;;;191.38;9.55;;;13.30;99.90;;;;;;5067007;28;20501;-93
2020/12/21 06:28:34;;;;;;;131.55;7.93;;;13.30;99.90;;;;;;5057262;28;20048;-89
2020/12/21 06:31:22;;;;;;;63.03;6.57;;;13.30;99.90;;;;;;5056621;28;20055;-91
2020/12/21 06:33:58;;;;;;;85.53;6.95;;;13.30;99.90;;;;;;5055777;28;20051;-90
2020/12/21 06:36:34;;;;;;;103.18;9.07;;;13.30;99.90;;;;;;5070218;28;20056;-90
2020/12/21 06:39:12;;;;;;;60.92;7.53;;;13.30;99.90;;;;;;5066706;28;20059;-89
2020/12/21 06:42:09;;;;;;;39.75;7.50;;;13.30;99.90;;;;;;5057494;28;20502;-89
2020/12/21 06:44:40;;;;;;;62.47;9.10;;;13.30;99.90;;;;;;5058547;28;20041;-91
2020/12/21 06:47:12;;;;;;;70.80;9.85;;;13.30;99.90;;;;;;5063080;28;20056;-90
2020/12/21 06:49:51;;;;;;;148.70;12.90;;;13.30;99.90;;;;;;5063658;28;20538;-90
2020/12/21 06:52:23;;;;;;;158.63;11.88;;;13.30;99.90;;;;;;5054702;28;20044;-90
2020/12/21 06:54:58;;;;;;;139.57;11.77;;;13.30;99.90;;;;;;5055669;28;20053;-90
2020/12/21 06:57:36;;;;;;;178.38;10.45;;;13.30;99.90;;;;;;5054815;28;20045;-91
2020/12/21 07:00:14;;;;;;;205.47;11.47;;;13.30;99.90;;;;;;5069553;28;20079;-91
2020/12/21 07:02:52;;;;;;;145.90;10.05;;;13.30;99.90;;;;;;5054326;28;20335;-90
2020/12/21 07:05:27;;;;;;;168.90;9.43;;;13.40;99.90;;;;;;5056326;28;20103;-90
2020/12/21 07:08:00;;;;;;;158.07;10.20;;;13.30;99.90;;;;;;5057605;28;20072;-90
2020/12/21 07:10:37;;;;;;;225.52;12.35;;;13.40;99.90;;;;;;5058006;28;20076;-90
2020/12/21 07:13:16;;;;;;;227.27;11.77;;;13.30;99.90;;;;;;5055807;28;20067;-91
2020/12/21 07:15:58;;;;;;;206.68;12.02;;;13.30;99.90;;;;;;5070917;28;20115;-91
2020/12/21 07:18:37;;;;;;;216.52;12.35;;;13.30;99.90;;;;;;5074112;28;20485;-91
2020/12/21 07:21:32;;;;;;;169.07;11.88;;;13.30;99.90;;;;;;5075050;28;20058;-95
2020/12/21 07:24:18;;;;;;;279.90;13.52;;;13.30;99.90;;;;;;5074922;28;20052;-93
2020/12/21 07:27:11;;;;;;;204.02;11.55;;;13.40;99.90;;;;;;5071069;28;20067;-93
2020/12/21 07:29:58;;;;;;;219.45;11.80;;;13.40;99.90;;;;;;5061298;28;20041;-93
2020/12/21 07:32:53;;;;;;;240.75;11.77;;;13.30;99.90;;;;;;5065804;28;20500;-93
2020/12/21 07:35:45;;;;;;;214.13;10.68;;;13.40;99.90;;;;;;5070394;28;20040;-93
2020/12/21 07:38:30;;;;;;;141.45;9.80;;;13.40;99.90;;;;;;5063226;28;20091;-94
2020/12/21 07:41:14;;;;;;;103.30;9.85;;;13.30;99.90;;;;;;5059047;28;20052;-93
2020/12/21 07:44:14;;;;;;;44.08;6.35;;;13.30;99.90;;;;;;5061930;28;20059;-92
2020/12/21 07:47:15;;;;;;;31.73;5.93;;;13.30;99.90;;;;;;5065631;28;20048;-92
2020/12/21 07:49:57;;;;;;;41.55;5.93;;;13.40;99.90;;;;;;5055564;28;20467;-92
2020/12/21 07:52:40;;;;;;;36.92;5.72;;;13.40;99.90;;;;;;5070209;28;20171;-93
2020/12/21 07:55:22;;;;;;;29.58;5.20;;;13.40;99.90;;;;;;5065246;28;20123;-94
2020/12/21 07:57:59;;;;;;;19.25;3.85;;;13.40;99.90;;;;;;5072263;28;20049;-93
2020/12/21 08:00:41;;;;;;;15.90;3.35;;;13.40;99.90;;;;;;5068959;28;20052;-91
2020/12/21 08:03:26;;;;;;;17.30;3.08;;;13.40;99.90;;;;;;5058116;28;20053;-93
2020/12/21 08:06:18;;;;;;;19.40;3.92;;;13.40;99.90;;;;;;5069446;28;20057;-93
2020/12/21 08:09:08;;;;;;;41.63;5.43;;;13.40;99.90;;;;;;5058123;28;20052;-92
2020/12/21 08:11:55;;;;;;;40.42;6.65;;;13.40;99.90;;;;;;5046273;28;20059;-92
2020/12/21 08:14:35;;;;;;;37.42;5.47;;;13.40;99.90;;;;;;5057268;28;20455;-92
2020/12/21 08:17:20;;;;;;;38.70;6.03;;;13.50;99.90;;;;;;5063121;28;20048;-92
2020/12/21 08:20:12;;;;;;;44.47;6.03;;;13.50;99.90;;;;;;5069180;28;20048;-92
2020/12/21 08:23:01;;;;;;;37.88;5.55;;;13.40;99.90;;;;;;5068579;28;20132;-92
2020/12/21 08:25:48;;;;;;;32.95;5.25;;;13.40;99.90;;;;;;5054768;28;20076;-92
2020/12/21 08:28:29;;;;;;;30.23;4.78;;;13.40;99.90;;;;;;5058332;28;20136;-92
2020/12/21 08:31:20;;;;;;;33.72;5.90;;;13.40;99.90;;;;;;5037500;28;20045;-93
2020/12/21 08:34:10;;;;;;;46.15;7.47;;;13.50;99.90;;;;;;5049919;28;20098;-92
2020/12/21 08:37:04;;;;;;;58.17;8.77;;;13.50;99.90;;;;;;5073183;28;20124;-93
2020/12/21 08:39:57;;;;;;;53.55;9.13;;;13.50;99.90;;;;;;5074273;28;20072;-92
2020/12/21 08:42:40;;;;;;;64.97;9.57;;;13.50;99.90;;;;;;5058784;28;20055;-92
2020/12/21 08:45:25;;;;;;;76.18;9.52;;;13.50;99.90;;;;;;5064941;28;20385;-92
2020/12/21 08:48:13;;;;;;;51.75;9.07;;;13.50;99.90;;;;;;5070605;28;20056;-93
2020/12/21 08:50:56;;;;;;;49.92;8.10;;;13.50;99.90;;;;;;5058174;28;20067;-92
2020/12/21 08:53:45;;;;;;;50.80;7.90;;;13.50;99.90;;;;;;5064518;28;20106;-92
2020/12/21 08:56:35;;;;;;;96.90;9.35;;;13.50;99.90;;;;;;5066435;28;20055;-92
2020/12/21 08:59:31;;;;;;;69.57;9.75;;;13.50;99.90;;;;;;5073955;28;20040;-93
2020/12/21 09:02:20;;;;;;;101.50;9.25;;;13.50;99.90;;;;;;5060009;28;20103;-93
2020/12/21 09:05:05;;;;;;;114.28;10.30;;;13.50;99.90;;;;;;5055844;28;20402;-93
2020/12/21 09:07:42;;;;;;;118.80;10.57;;;13.50;99.90;;;;;;5059183;28;20037;-94
2020/12/21 09:10:23;;;;;;;142.95;12.07;;;13.50;99.90;;;;;;5066891;28;20068;-93
2020/12/21 09:13:02;;;;;;;118.88;10.88;;;13.50;99.90;;;;;;5062843;28;20117;-93
2020/12/21 09:15:56;;;;;;;81.72;10.75;;;13.50;99.90;;;;;;5061227;28;20156;-94
2020/12/21 09:18:36;;;;;;;99.28;10.10;;;13.50;99.90;;;;;;5063013;28;20482;-94
2020/12/21 09:21:33;;;;;;;90.13;9.65;;;13.50;99.90;;;;;;5063901;28;20139;-93
2020/12/21 09:24:17;;;;;;;90.95;9.82;;;13.50;99.90;;;;;;5050358;28;20444;-93
2020/12/21 09:27:00;;;;;;;93.35;8.05;;;13.50;99.90;;;;;;5067200;28;20412;-93
2020/12/21 09:29:43;;;;;;;82.43;6.97;;;13.50;99.90;;;;;;5059866;28;20048;-93
2020/12/21 09:32:32;;;;;;;98.75;7.22;;;13.50;99.90;;;;;;5078234;28;20108;-93
2020/12/21 09:35:16;;;;;;;92.30;7.10;;;13.50;99.90;;;;;;5065019;28;20051;-93
2020/12/21 09:38:06;;;;;;;103.15;7.05;;;13.50;99.90;;;;;;5058126;28;20144;-92
2020/12/21 09:40:53;;;;;;;117.45;7.80;;;13.50;99.90;;;;;;5066850;28;20106;-93
2020/12/21 09:43:45;;;;;;;59.90;6.32;;;13.50;99.90;;;;;;5064391;28;20041;-94
2020/12/21 09:46:36;;;;;;;70.00;6.82;;;13.50;99.90;;;;;;5065580;28;20059;-93
2020/12/21 09:49:27;;;;;;;41.10;5.85;;;13.60;99.90;;;;;;5065880;28;20052;-92
2020/12/21 09:52:12;;;;;;;45.53;5.63;;;13.50;99.90;;;;;;5060765;28;20147;-92
2020/12/21 09:55:15;;;;;;;58.30;6.47;;;13.60;99.90;;;;;;5054702;28;20382;-93
2020/12/21 09:58:00;;;;;;;53.17;5.38;;;13.50;99.90;;;;;;5063780;28;20056;-93
2020/12/21 10:00:49;;;;;;;65.03;5.22;;;13.50;99.90;;;;;;5068169;28;20057;-93
2020/12/21 10:03:36;;;;;;;52.70;4.65;;;13.50;99.90;;;;;;5065463;28;20114;-93
2020/12/21 10:06:23;;;;;;;26.15;3.50;;;13.60;99.90;;;;;;5062703;28;20502;-93
2020/12/21 10:09:01;;;;;;;36.42;4.20;;;13.60;99.90;;;;;;5065304;28;20102;-93
2020/12/21 10:11:40;;;;;;;38.80;3.80;;;13.50;99.90;;;;;;5056867;28;20090;-93
2020/12/21 10:14:24;;;;;;;37.15;4.25;;;13.60;99.90;;;;;;5062603;28;20132;-93
2020/12/21 10:17:04;;;;;;;40.95;3.97;;;13.60;99.90;;;;;;5059419;28;20048;-91
2020/12/21 10:19:44;;;;;;;34.60;4.15;;;13.60;99.90;;;;;;5063855;28;20530;-92
2020/12/21 10:22:29;;;;;;;46.20;3.63;;;13.60;99.90;;;;;;5080589;28;20517;-92
2020/12/21 10:25:12;;;;;;;52.65;4.05;;;13.60;99.90;;;;;;5061916;28;20044;-92
2020/12/21 10:27:57;;;;;;;55.83;3.92;;;13.60;99.90;;;;;;5060352;28;20052;-93
2020/12/21 10:34:10;;;;;;;68.85;4.25;;;13.60;99.90;;;;;;5060446;28;20043;-93
2020/12/21 10:37:00;;;;;;;38.33;4.05;;;13.60;99.90;;;;;;5041921;28;20447;-94
2020/12/21 10:39:54;;;;;;;47.15;4.30;;;13.60;99.90;;;;;;5034080;28;20049;-93
2020/12/21 10:42:38;;;;;;;66.30;4.53;;;13.60;99.90;;;;;;5032494;28;20084;-93
2020/12/21 10:45:31;;;;;;;49.30;5.00;;;13.60;99.90;;;;;;5031518;28;20696;-92
2020/12/21 10:48:15;;;;;;;95.90;5.65;;;13.60;99.90;;;;;;5026499;28;20048;-92
2020/12/21 10:50:57;;;;;;;115.00;6.22;;;13.60;99.90;;;;;;5027662;28;20045;-92
2020/12/21 10:53:47;;;;;;;87.65;5.60;;;13.60;99.90;;;;;;5046775;28;20339;-92
2020/12/21 10:56:27;;;;;;;85.65;5.65;;;13.60;99.90;;;;;;5034194;28;20080;-92
2020/12/21 10:59:14;;;;;;;114.53;7.70;;;13.60;99.90;;;;;;5031687;28;20109;-92
2020/12/21 11:02:06;;;;;;;48.30;7.78;;;13.60;99.90;;;;;;5031434;28;20076;-92
2020/12/21 11:04:51;;;;;;;49.30;7.67;;;13.60;99.90;;;;;;5033130;28;20049;-93
2020/12/21 11:07:41;;;;;;;49.72;7.03;;;13.60;99.90;;;;;;5032588;28;20491;-93
2020/12/21 11:10:34;;;;;;;47.60;6.22;;;13.60;99.90;;;;;;5050640;28;20059;-93
2020/12/21 11:13:21;;;;;;;53.05;9.18;;;13.60;99.90;;;;;;5033721;28;20055;-93
2020/12/21 11:16:00;;;;;;;54.42;5.80;;;13.60;99.90;;;;;;5034696;28;20360;-93
2020/12/21 11:18:35;;;;;;;;;;;13.60;99.90;;;;;;5029090;28;20056;-93
2020/12/21 11:21:26;;;;;;;47.95;9.10;;;13.60;99.90;;;;;;5033383;28;19921;-93
2020/12/21 11:24:07;;;;;;;49.22;6.43;;;13.60;99.90;;;;;;5034198;28;20053;-92
2020/12/21 11:26:53;;;;;;;36.42;5.05;;;13.70;99.90;;;;;;5043472;28;20057;-93
2020/12/21 11:29:39;;;;;;;27.08;4.20;;;13.70;99.90;;;;;;5031836;28;20048;-92
2020/12/21 11:32:28;;;;;;;28.73;3.92;;;13.70;99.90;;;;;;5029746;28;20053;-92
2020/12/21 11:35:13;;;;;;;31.98;4.10;;;13.70;99.90;;;;;;5033620;28;20089;-92
2020/12/21 11:38:00;;;;;;;38.97;3.72;;;13.70;99.90;;;;;;5052149;28;20139;-92
2020/12/21 11:40:41;;;;;;;23.83;3.45;;;13.70;99.90;;;;;;5066916;28;20467;-92
2020/12/21 11:43:22;;;;;;;23.10;3.83;;;13.70;99.90;;;;;;5070865;28;20048;-91
2020/12/21 11:46:02;;;;;;;26.92;4.07;;;13.80;99.90;;;;;;5069746;28;20470;-92
2020/12/21 11:48:52;;;;;;;39.33;4.38;;;13.80;99.90;;;;;;5065084;28;20068;-91
2020/12/21 11:51:43;;;;;;;26.73;3.78;;;13.80;99.90;;;;;;5066520;28;20139;-93
2020/12/21 11:54:40;;;;;;;33.53;4.93;;;13.80;99.90;;;;;;5063762;28;20143;-91
2020/12/21 11:57:26;;;;;;;25.02;7.60;;;13.80;99.90;;;;;;5065059;28;20049;-92
2020/12/21 12:00:02;;;;;;;25.65;5.35;;;13.90;99.90;;;;;;5081163;28;20061;-92
2020/12/21 12:02:47;;;;;;;27.65;5.38;;;13.90;99.90;;;;;;5068989;28;20505;-94
2020/12/21 12:05:37;;;;;;;36.70;7.18;;;13.90;99.90;;;;;;5066062;28;20045;-91
2020/12/21 12:08:14;;;;;;;35.40;5.78;;;13.90;99.90;;;;;;5065305;28;20416;-91
2020/12/21 12:10:55;;;;;;;37.05;8.25;;;13.90;99.90;;;;;;5060734;28;20041;-92
2020/12/21 12:13:52;;;;;;;46.85;7.35;;;13.90;99.90;;;;;;5066667;28;20460;-95
2020/12/21 12:16:56;;;;;;;44.92;7.28;;;13.90;99.90;;;;;;5051410;28;20035;-94
2020/12/21 12:19:35;;;;;;;47.45;7.32;;;13.90;99.90;;;;;;5065267;28;20126;-95
2020/12/21 12:22:14;;;;;;;45.90;6.43;;;13.90;99.90;;;;;;5069433;28;20050;-94
2020/12/21 12:25:12;;;;;;;39.05;6.60;;;13.90;99.90;;;;;;5069049;28;20533;-94
2020/12/21 12:28:27;;;;;;;48.28;6.57;;;13.90;99.90;;;;;;5078142;28;20049;-92
2020/12/21 12:31:31;;;;;;;55.25;6.70;;;13.90;99.90;;;;;;5082760;28;20044;-92
2020/12/21 12:34:10;;;;;;;58.30;6.80;;;13.90;99.90;;;;;;5061676;28;20076;-92
2020/12/21 12:36:56;;;;;;;52.75;6.90;;;13.90;99.90;;;;;;5065374;28;20115;-92
2020/12/21 12:39:38;;;;;;;60.88;8.15;;;13.90;99.90;;;;;;5066238;28;20102;-92
2020/12/21 12:42:19;;;;;;;66.13;8.30;;;13.90;99.90;;;;;;5060525;28;20091;-94
2020/12/21 12:45:05;;;;;;;61.25;8.15;;;13.90;99.90;;;;;;5065749;28;20067;-92
2020/12/21 12:47:51;;;;;;;55.50;8.23;;;13.90;99.90;;;;;;5067637;28;20080;-92
2020/12/21 12:50:44;;;;;;;59.83;9.15;;;13.90;99.90;;;;;;5068386;28;20793;-94
2020/12/21 12:53:40;;;;;;;62.20;8.50;;;13.90;99.90;;;;;;5068581;28;20437;-95
2020/12/21 12:56:29;;;;;;;68.00;8.57;;;13.90;99.90;;;;;;5060153;28;20049;-92
2020/12/21 12:59:14;;;;;;;59.60;8.15;;;13.90;99.90;;;;;;5061308;28;20143;-92
2020/12/21 13:02:04;;;;;;;68.35;9.18;;;14.00;99.90;;;;;;5060527;28;20063;-91
2020/12/21 13:04:53;;;;;;;62.03;8.10;;;13.90;99.90;;;;;;5056745;28;20056;-92
2020/12/21 13:07:36;;;;;;;66.72;8.35;;;13.90;99.90;;;;;;5062466;28;20052;-92
2020/12/21 13:10:18;;;;;;;68.57;8.38;;;13.90;99.90;;;;;;5051180;28;20048;-92
2020/12/21 13:13:12;;;;;;;63.95;8.60;;;14.00;99.90;;;;;;5056273;28;20123;-94
2020/12/21 13:16:06;;;;;;;58.20;7.30;;;14.00;99.90;;;;;;5075862;28;20398;-94
2020/12/21 13:19:04;;;;;;;56.72;8.23;;;14.00;99.90;;;;;;5063751;28;20053;-95
2020/12/21 13:21:54;;;;;;;49.22;7.35;;;13.90;99.90;;;;;;5058586;28;20464;-93
2020/12/21 13:24:39;;;;;;;63.10;8.60;;;14.00;99.90;;;;;;5067540;28;20143;-94
2020/12/21 13:27:35;;;;;;;62.50;8.68;;;14.00;99.90;;;;;;5062896;28;20097;-94
2020/12/21 13:30:20;;;;;;;64.90;8.38;;;14.00;99.90;;;;;;5065328;28;20049;-94
2020/12/21 13:33:17;;;;;;;73.43;8.82;;;13.90;99.90;;;;;;5061620;28;20051;-94
2020/12/21 13:36:05;;;;;;;71.18;8.68;;;13.90;99.90;;;;;;5063740;28;20072;-93
2020/12/21 13:39:00;;;;;;;65.25;9.55;;;13.90;99.90;;;;;;5045870;28;20045;-94
2020/12/21 13:42:03;;;;;;;59.67;7.93;;;13.90;99.90;;;;;;5027849;28;20049;-95
2020/12/21 13:44:47;;;;;;;59.40;8.35;;;13.90;99.90;;;;;;5027816;28;20049;-94
2020/12/21 13:47:38;;;;;;;68.25;8.18;;;13.90;99.90;;;;;;5031644;28;20044;-95
2020/12/21 13:50:31;;;;;;;59.47;8.02;;;13.90;99.90;;;;;;5029855;28;20041;-94
2020/12/21 13:53:29;;;;;;;61.35;8.15;;;13.80;99.90;;;;;;5032724;28;20048;-94
2020/12/21 13:56:17;;;;;;;73.00;8.40;;;13.90;99.90;;;;;;5045710;28;20124;-94
2020/12/21 13:59:11;;;;;;;70.30;8.55;;;13.90;99.90;;;;;;5027813;28;20048;-94
2020/12/21 14:02:00;;;;;;;64.13;8.65;;;13.90;99.90;;;;;;5043894;28;20053;-93
2020/12/21 14:04:55;;;;;;;69.15;9.00;;;13.90;99.90;;;;;;5047294;28;20063;-94
2020/12/21 14:07:50;;;;;;;68.27;8.50;;;13.90;99.90;;;;;;5028993;28;20049;-94
2020/12/21 14:10:57;;;;;;;72.75;9.32;;;13.80;99.90;;;;;;5045465;28;20082;-94
2020/12/21 14:13:46;;;;;;;70.07;8.65;;;13.80;99.90;;;;;;5045393;28;20044;-94